sensor_id;sensor_type;location;lat;lon;timestamp;P1;durP1;ratioP1;P2;durP2;ratioP2
1777;SDS011;886;50.082;8.222;2023-01-30T00:00:20;19.20;;;11.90;;
1777;SDS011;886;50.082;8.222;2023-01-30T00:02:49;16.77;;;11.52;;
1777;SDS011;886;50.082;8.222;2023-01-30T00:05:16;20.55;;;12.43;;
1777;SDS011;886;50.082;8.222;2023-01-30T00:07:43;19.23;;;12.68;;
1777;SDS011;886;50.082;8.222;2023-01-30T00:10:12;21.25;;;13.38;;
1777;SDS011;886;50.082;8.222;2023-01-30T00:12:39;21.35;;;13.18;;
1777;SDS011;886;50.082;8.222;2023-01-30T00:15:07;21.02;;;13.45;;
1777;SDS011;886;50.082;8.222;2023-01-30T00:17:34;20.55;;;12.48;;
1777;SDS011;886;50.082;8.222;2023-01-30T00:20:03;22.05;;;12.38;;
1777;SDS011;886;50.082;8.222;2023-01-30T00:22:31;22.50;;;12.20;;
1777;SDS011;886;50.082;8.222;2023-01-30T00:24:58;24.35;;;12.80;;
1777;SDS011;886;50.082;8.222;2023-01-30T00:27:25;19.52;;;12.27;;
1777;SDS011;886;50.082;8.222;2023-01-30T00:29:52;22.52;;;13.18;;
1777;SDS011;886;50.082;8.222;2023-01-30T00:32:28;21.13;;;12.93;;
1777;SDS011;886;50.082;8.222;2023-01-30T00:34:55;19.33;;;11.80;;
1777;SDS011;886;50.082;8.222;2023-01-30T00:37:24;22.23;;;12.55;;
1777;SDS011;886;50.082;8.222;2023-01-30T00:39:51;20.98;;;11.90;;
1777;SDS011;886;50.082;8.222;2023-01-30T00:42:19;20.48;;;12.20;;
1777;SDS011;886;50.082;8.222;2023-01-30T00:45:05;22.17;;;12.02;;
1777;SDS011;886;50.082;8.222;2023-01-30T00:47:54;27.77;;;14.30;;
1777;SDS011;886;50.082;8.222;2023-01-30T00:50:22;21.85;;;12.30;;
1777;SDS011;886;50.082;8.222;2023-01-30T00:52:51;20.23;;;12.23;;
1777;SDS011;886;50.082;8.222;2023-01-30T00:55:18;23.55;;;13.25;;
1777;SDS011;886;50.082;8.222;2023-01-30T00:57:45;21.10;;;12.40;;
1777;SDS011;886;50.082;8.222;2023-01-30T01:00:13;21.20;;;12.65;;
1777;SDS011;886;50.082;8.222;2023-01-30T01:02:43;21.13;;;12.43;;
1777;SDS011;886;50.082;8.222;2023-01-30T01:05:10;21.30;;;13.40;;
1777;SDS011;886;50.082;8.222;2023-01-30T01:07:37;22.42;;;12.75;;
1777;SDS011;886;50.082;8.222;2023-01-30T01:10:07;25.73;;;13.80;;
1777;SDS011;886;50.082;8.222;2023-01-30T01:12:41;23.83;;;13.75;;
1777;SDS011;886;50.082;8.222;2023-01-30T01:15:10;20.67;;;12.60;;
1777;SDS011;886;50.082;8.222;2023-01-30T01:17:37;22.95;;;12.73;;
1777;SDS011;886;50.082;8.222;2023-01-30T01:20:05;21.30;;;12.38;;
1777;SDS011;886;50.082;8.222;2023-01-30T01:22:35;25.02;;;12.85;;
1777;SDS011;886;50.082;8.222;2023-01-30T01:25:02;21.20;;;13.20;;
1777;SDS011;886;50.082;8.222;2023-01-30T01:27:32;21.65;;;13.25;;
1777;SDS011;886;50.082;8.222;2023-01-30T01:29:59;27.65;;;14.00;;
1777;SDS011;886;50.082;8.222;2023-01-30T01:32:27;21.15;;;12.45;;
1777;SDS011;886;50.082;8.222;2023-01-30T01:34:54;21.70;;;11.88;;
1777;SDS011;886;50.082;8.222;2023-01-30T01:37:21;19.42;;;11.80;;
1777;SDS011;886;50.082;8.222;2023-01-30T01:39:49;21.98;;;13.20;;
1777;SDS011;886;50.082;8.222;2023-01-30T01:42:36;24.55;;;12.20;;
1777;SDS011;886;50.082;8.222;2023-01-30T01:45:10;23.48;;;13.02;;
1777;SDS011;886;50.082;8.222;2023-01-30T01:47:45;18.27;;;12.18;;
1777;SDS011;886;50.082;8.222;2023-01-30T01:50:20;23.05;;;12.18;;
1777;SDS011;886;50.082;8.222;2023-01-30T01:52:52;18.67;;;11.20;;
1777;SDS011;886;50.082;8.222;2023-01-30T01:55:22;20.45;;;12.32;;
1777;SDS011;886;50.082;8.222;2023-01-30T01:57:52;17.83;;;11.43;;
1777;SDS011;886;50.082;8.222;2023-01-30T02:00:22;33.85;;;19.60;;
1777;SDS011;886;50.082;8.222;2023-01-30T02:02:51;21.83;;;13.10;;
1777;SDS011;886;50.082;8.222;2023-01-30T02:05:23;20.88;;;12.45;;
1777;SDS011;886;50.082;8.222;2023-01-30T02:07:57;16.63;;;11.27;;
1777;SDS011;886;50.082;8.222;2023-01-30T02:10:31;16.65;;;11.70;;
1777;SDS011;886;50.082;8.222;2023-01-30T02:13:08;17.67;;;10.73;;
1777;SDS011;886;50.082;8.222;2023-01-30T02:15:35;18.00;;;10.82;;
1777;SDS011;886;50.082;8.222;2023-01-30T02:18:02;18.52;;;11.10;;
1777;SDS011;886;50.082;8.222;2023-01-30T02:20:31;18.95;;;11.45;;
1777;SDS011;886;50.082;8.222;2023-01-30T02:23:28;19.45;;;11.55;;
1777;SDS011;886;50.082;8.222;2023-01-30T02:32:51;16.27;;;11.55;;
1777;SDS011;886;50.082;8.222;2023-01-30T02:35:36;19.88;;;11.93;;
1777;SDS011;886;50.082;8.222;2023-01-30T02:38:15;16.88;;;10.73;;
1777;SDS011;886;50.082;8.222;2023-01-30T02:41:00;17.42;;;11.32;;
1777;SDS011;886;50.082;8.222;2023-01-30T02:43:39;20.00;;;12.00;;
1777;SDS011;886;50.082;8.222;2023-01-30T02:46:16;19.55;;;11.90;;
1777;SDS011;886;50.082;8.222;2023-01-30T02:48:50;20.30;;;12.20;;
1777;SDS011;886;50.082;8.222;2023-01-30T02:51:23;17.52;;;11.40;;
1777;SDS011;886;50.082;8.222;2023-01-30T02:53:54;15.15;;;10.15;;
1777;SDS011;886;50.082;8.222;2023-01-30T02:56:22;17.90;;;10.90;;
1777;SDS011;886;50.082;8.222;2023-01-30T02:58:51;21.02;;;11.00;;
1777;SDS011;886;50.082;8.222;2023-01-30T03:01:27;21.55;;;11.68;;
1777;SDS011;886;50.082;8.222;2023-01-30T03:04:19;15.93;;;10.30;;
1777;SDS011;886;50.082;8.222;2023-01-30T03:07:09;15.07;;;10.68;;
1777;SDS011;886;50.082;8.222;2023-01-30T03:09:49;18.23;;;11.18;;
1777;SDS011;886;50.082;8.222;2023-01-30T03:12:26;18.15;;;11.55;;
1777;SDS011;886;50.082;8.222;2023-01-30T03:15:04;17.92;;;10.70;;
1777;SDS011;886;50.082;8.222;2023-01-30T03:17:38;18.70;;;11.55;;
1777;SDS011;886;50.082;8.222;2023-01-30T03:20:11;16.73;;;10.65;;
1777;SDS011;886;50.082;8.222;2023-01-30T03:22:40;16.15;;;9.80;;
1777;SDS011;886;50.082;8.222;2023-01-30T03:25:07;22.98;;;11.98;;
1777;SDS011;886;50.082;8.222;2023-01-30T03:27:36;16.60;;;11.48;;
1777;SDS011;886;50.082;8.222;2023-01-30T03:30:05;17.30;;;10.65;;
1777;SDS011;886;50.082;8.222;2023-01-30T03:32:33;16.85;;;10.90;;
1777;SDS011;886;50.082;8.222;2023-01-30T03:35:00;14.82;;;10.07;;
1777;SDS011;886;50.082;8.222;2023-01-30T03:37:29;19.00;;;10.88;;
1777;SDS011;886;50.082;8.222;2023-01-30T03:39:57;18.42;;;11.80;;
1777;SDS011;886;50.082;8.222;2023-01-30T03:42:24;16.02;;;10.35;;
1777;SDS011;886;50.082;8.222;2023-01-30T03:44:52;17.80;;;10.77;;
1777;SDS011;886;50.082;8.222;2023-01-30T03:47:19;17.45;;;9.93;;
1777;SDS011;886;50.082;8.222;2023-01-30T03:49:46;16.63;;;11.02;;
1777;SDS011;886;50.082;8.222;2023-01-30T03:52:13;18.02;;;10.95;;
1777;SDS011;886;50.082;8.222;2023-01-30T03:54:41;18.30;;;10.55;;
1777;SDS011;886;50.082;8.222;2023-01-30T03:57:08;16.70;;;10.13;;
1777;SDS011;886;50.082;8.222;2023-01-30T03:59:35;19.33;;;11.50;;
1777;SDS011;886;50.082;8.222;2023-01-30T04:02:02;15.98;;;10.90;;
1777;SDS011;886;50.082;8.222;2023-01-30T04:04:29;19.58;;;11.15;;
1777;SDS011;886;50.082;8.222;2023-01-30T04:06:57;19.23;;;10.80;;
1777;SDS011;886;50.082;8.222;2023-01-30T04:09:24;15.10;;;10.50;;
1777;SDS011;886;50.082;8.222;2023-01-30T04:11:53;17.55;;;10.23;;
1777;SDS011;886;50.082;8.222;2023-01-30T04:14:19;14.30;;;9.93;;
1777;SDS011;886;50.082;8.222;2023-01-30T04:16:47;17.40;;;11.02;;
1777;SDS011;886;50.082;8.222;2023-01-30T04:19:14;18.63;;;10.85;;
1777;SDS011;886;50.082;8.222;2023-01-30T04:21:41;16.42;;;10.38;;
1777;SDS011;886;50.082;8.222;2023-01-30T04:24:08;15.23;;;9.40;;
1777;SDS011;886;50.082;8.222;2023-01-30T04:26:35;18.25;;;11.45;;
1777;SDS011;886;50.082;8.222;2023-01-30T04:29:04;16.13;;;10.55;;
1777;SDS011;886;50.082;8.222;2023-01-30T04:31:31;15.25;;;10.60;;
1777;SDS011;886;50.082;8.222;2023-01-30T04:33:58;18.30;;;10.65;;
1777;SDS011;886;50.082;8.222;2023-01-30T04:36:25;17.63;;;10.43;;
1777;SDS011;886;50.082;8.222;2023-01-30T04:38:54;17.17;;;11.60;;
1777;SDS011;886;50.082;8.222;2023-01-30T04:41:24;18.70;;;10.98;;
1777;SDS011;886;50.082;8.222;2023-01-30T04:43:51;20.70;;;12.15;;
1777;SDS011;886;50.082;8.222;2023-01-30T04:46:20;16.63;;;10.55;;
1777;SDS011;886;50.082;8.222;2023-01-30T04:48:47;16.33;;;10.15;;
1777;SDS011;886;50.082;8.222;2023-01-30T04:51:14;17.67;;;11.80;;
1777;SDS011;886;50.082;8.222;2023-01-30T04:53:41;15.23;;;10.45;;
1777;SDS011;886;50.082;8.222;2023-01-30T04:56:08;16.90;;;10.90;;
1777;SDS011;886;50.082;8.222;2023-01-30T04:58:35;12.80;;;9.35;;
1777;SDS011;886;50.082;8.222;2023-01-30T05:01:12;17.02;;;11.38;;
1777;SDS011;886;50.082;8.222;2023-01-30T05:03:42;18.25;;;10.82;;
1777;SDS011;886;50.082;8.222;2023-01-30T05:06:09;17.02;;;10.70;;
1777;SDS011;886;50.082;8.222;2023-01-30T05:08:36;18.23;;;10.65;;
1777;SDS011;886;50.082;8.222;2023-01-30T05:11:04;18.95;;;10.80;;
1777;SDS011;886;50.082;8.222;2023-01-30T05:13:31;18.08;;;11.27;;
1777;SDS011;886;50.082;8.222;2023-01-30T05:15:58;15.40;;;10.93;;
1777;SDS011;886;50.082;8.222;2023-01-30T05:18:25;22.13;;;11.77;;
1777;SDS011;886;50.082;8.222;2023-01-30T05:20:54;16.70;;;10.27;;
1777;SDS011;886;50.082;8.222;2023-01-30T05:23:30;15.60;;;10.07;;
1777;SDS011;886;50.082;8.222;2023-01-30T05:25:57;18.52;;;10.90;;
1777;SDS011;886;50.082;8.222;2023-01-30T05:28:25;16.80;;;10.30;;
1777;SDS011;886;50.082;8.222;2023-01-30T05:30:52;17.73;;;11.18;;
1777;SDS011;886;50.082;8.222;2023-01-30T05:33:19;15.40;;;10.32;;
1777;SDS011;886;50.082;8.222;2023-01-30T05:35:46;16.42;;;10.80;;
1777;SDS011;886;50.082;8.222;2023-01-30T05:38:15;17.48;;;9.75;;
1777;SDS011;886;50.082;8.222;2023-01-30T05:40:42;15.50;;;10.25;;
1777;SDS011;886;50.082;8.222;2023-01-30T05:43:09;18.17;;;10.88;;
1777;SDS011;886;50.082;8.222;2023-01-30T05:45:36;12.77;;;9.15;;
1777;SDS011;886;50.082;8.222;2023-01-30T05:48:04;17.92;;;11.13;;
1777;SDS011;886;50.082;8.222;2023-01-30T05:50:31;18.48;;;11.63;;
1777;SDS011;886;50.082;8.222;2023-01-30T05:52:59;16.30;;;10.07;;
1777;SDS011;886;50.082;8.222;2023-01-30T05:55:27;12.30;;;8.65;;
1777;SDS011;886;50.082;8.222;2023-01-30T05:57:54;12.60;;;9.65;;
1777;SDS011;886;50.082;8.222;2023-01-30T06:00:21;12.77;;;9.25;;
1777;SDS011;886;50.082;8.222;2023-01-30T06:02:48;11.80;;;8.73;;
1777;SDS011;886;50.082;8.222;2023-01-30T06:05:15;15.07;;;9.27;;
1777;SDS011;886;50.082;8.222;2023-01-30T06:07:42;9.80;;;7.25;;
1777;SDS011;886;50.082;8.222;2023-01-30T06:10:10;14.20;;;9.23;;
1777;SDS011;886;50.082;8.222;2023-01-30T06:12:38;14.75;;;9.68;;
1777;SDS011;886;50.082;8.222;2023-01-30T06:15:05;11.38;;;8.30;;
1777;SDS011;886;50.082;8.222;2023-01-30T06:17:33;13.60;;;8.95;;
1777;SDS011;886;50.082;8.222;2023-01-30T06:20:00;13.02;;;9.18;;
1777;SDS011;886;50.082;8.222;2023-01-30T06:22:27;11.32;;;8.90;;
1777;SDS011;886;50.082;8.222;2023-01-30T06:24:54;13.52;;;8.40;;
1777;SDS011;886;50.082;8.222;2023-01-30T06:27:21;10.10;;;7.53;;
1777;SDS011;886;50.082;8.222;2023-01-30T06:29:50;11.82;;;7.88;;
1777;SDS011;886;50.082;8.222;2023-01-30T06:32:17;12.50;;;7.88;;
1777;SDS011;886;50.082;8.222;2023-01-30T06:34:44;10.98;;;7.30;;
1777;SDS011;886;50.082;8.222;2023-01-30T06:37:11;11.13;;;7.32;;
1777;SDS011;886;50.082;8.222;2023-01-30T06:39:39;11.40;;;8.10;;
1777;SDS011;886;50.082;8.222;2023-01-30T06:42:06;10.57;;;7.47;;
1777;SDS011;886;50.082;8.222;2023-01-30T06:44:33;9.90;;;7.15;;
1777;SDS011;886;50.082;8.222;2023-01-30T06:47:01;9.32;;;7.68;;
1777;SDS011;886;50.082;8.222;2023-01-30T06:49:28;9.75;;;6.82;;
1777;SDS011;886;50.082;8.222;2023-01-30T06:51:55;9.85;;;7.55;;
1777;SDS011;886;50.082;8.222;2023-01-30T06:54:23;10.88;;;7.05;;
1777;SDS011;886;50.082;8.222;2023-01-30T06:56:50;9.38;;;6.60;;
1777;SDS011;886;50.082;8.222;2023-01-30T06:59:17;10.20;;;7.60;;
1777;SDS011;886;50.082;8.222;2023-01-30T07:01:43;7.85;;;6.60;;
1777;SDS011;886;50.082;8.222;2023-01-30T07:04:12;10.90;;;7.63;;
1777;SDS011;886;50.082;8.222;2023-01-30T07:06:39;11.75;;;7.38;;
1777;SDS011;886;50.082;8.222;2023-01-30T07:09:06;12.60;;;6.80;;
1777;SDS011;886;50.082;8.222;2023-01-30T07:11:33;9.85;;;7.28;;
1777;SDS011;886;50.082;8.222;2023-01-30T07:14:00;10.30;;;7.55;;
1777;SDS011;886;50.082;8.222;2023-01-30T07:16:27;7.90;;;6.03;;
1777;SDS011;886;50.082;8.222;2023-01-30T07:18:56;10.73;;;7.75;;
1777;SDS011;886;50.082;8.222;2023-01-30T07:21:25;7.80;;;6.50;;
1777;SDS011;886;50.082;8.222;2023-01-30T07:23:52;10.20;;;7.40;;
1777;SDS011;886;50.082;8.222;2023-01-30T07:26:19;9.55;;;7.50;;
1777;SDS011;886;50.082;8.222;2023-01-30T07:28:46;13.40;;;7.82;;
1777;SDS011;886;50.082;8.222;2023-01-30T07:31:13;10.82;;;7.82;;
1777;SDS011;886;50.082;8.222;2023-01-30T07:33:40;10.77;;;7.70;;
1777;SDS011;886;50.082;8.222;2023-01-30T07:36:07;11.23;;;7.22;;
1777;SDS011;886;50.082;8.222;2023-01-30T07:38:36;11.93;;;8.65;;
1777;SDS011;886;50.082;8.222;2023-01-30T07:41:03;10.27;;;8.35;;
1777;SDS011;886;50.082;8.222;2023-01-30T07:43:30;11.38;;;7.60;;
1777;SDS011;886;50.082;8.222;2023-01-30T07:45:58;10.43;;;8.32;;
1777;SDS011;886;50.082;8.222;2023-01-30T07:48:26;11.93;;;8.88;;
1777;SDS011;886;50.082;8.222;2023-01-30T07:50:54;13.55;;;9.10;;
1777;SDS011;886;50.082;8.222;2023-01-30T07:53:24;12.93;;;8.80;;
1777;SDS011;886;50.082;8.222;2023-01-30T07:55:52;11.68;;;7.75;;
1777;SDS011;886;50.082;8.222;2023-01-30T07:58:19;10.85;;;7.85;;
1777;SDS011;886;50.082;8.222;2023-01-30T08:00:46;12.48;;;7.90;;
1777;SDS011;886;50.082;8.222;2023-01-30T08:03:13;13.63;;;7.97;;
1777;SDS011;886;50.082;8.222;2023-01-30T08:05:43;10.35;;;8.23;;
1777;SDS011;886;50.082;8.222;2023-01-30T08:08:12;11.77;;;7.60;;
1777;SDS011;886;50.082;8.222;2023-01-30T08:10:39;12.23;;;8.40;;
1777;SDS011;886;50.082;8.222;2023-01-30T08:13:07;11.18;;;8.20;;
1777;SDS011;886;50.082;8.222;2023-01-30T08:15:34;11.15;;;7.18;;
1777;SDS011;886;50.082;8.222;2023-01-30T08:18:02;13.13;;;9.23;;
1777;SDS011;886;50.082;8.222;2023-01-30T08:20:29;11.68;;;7.50;;
1777;SDS011;886;50.082;8.222;2023-01-30T08:22:57;8.18;;;6.80;;
1777;SDS011;886;50.082;8.222;2023-01-30T08:25:25;8.38;;;6.40;;
1777;SDS011;886;50.082;8.222;2023-01-30T08:27:52;9.75;;;6.53;;
1777;SDS011;886;50.082;8.222;2023-01-30T08:30:21;7.95;;;6.45;;
1777;SDS011;886;50.082;8.222;2023-01-30T08:32:48;10.48;;;6.43;;
1777;SDS011;886;50.082;8.222;2023-01-30T08:35:15;10.98;;;6.20;;
1777;SDS011;886;50.082;8.222;2023-01-30T08:37:43;7.63;;;5.93;;
1777;SDS011;886;50.082;8.222;2023-01-30T08:40:10;7.10;;;6.40;;
1777;SDS011;886;50.082;8.222;2023-01-30T08:42:38;7.40;;;5.03;;
1777;SDS011;886;50.082;8.222;2023-01-30T08:45:06;6.57;;;5.43;;
1777;SDS011;886;50.082;8.222;2023-01-30T08:47:35;9.35;;;5.65;;
1777;SDS011;886;50.082;8.222;2023-01-30T08:50:02;7.32;;;4.95;;
1777;SDS011;886;50.082;8.222;2023-01-30T08:52:30;7.15;;;5.50;;
1777;SDS011;886;50.082;8.222;2023-01-30T08:54:58;5.55;;;4.53;;
1777;SDS011;886;50.082;8.222;2023-01-30T08:57:25;7.43;;;4.90;;
1777;SDS011;886;50.082;8.222;2023-01-30T08:59:52;5.70;;;4.95;;
1777;SDS011;886;50.082;8.222;2023-01-30T09:02:19;4.50;;;4.10;;
1777;SDS011;886;50.082;8.222;2023-01-30T09:04:47;5.28;;;4.78;;
1777;SDS011;886;50.082;8.222;2023-01-30T09:07:14;10.18;;;6.13;;
1777;SDS011;886;50.082;8.222;2023-01-30T09:09:41;4.40;;;4.00;;
1777;SDS011;886;50.082;8.222;2023-01-30T09:12:08;4.55;;;4.05;;
1777;SDS011;886;50.082;8.222;2023-01-30T09:14:35;4.70;;;4.30;;
1777;SDS011;886;50.082;8.222;2023-01-30T09:17:02;4.13;;;3.70;;
1777;SDS011;886;50.082;8.222;2023-01-30T09:19:29;4.63;;;4.20;;
1777;SDS011;886;50.082;8.222;2023-01-30T09:21:58;3.78;;;3.47;;
1777;SDS011;886;50.082;8.222;2023-01-30T09:24:25;4.85;;;4.25;;
1777;SDS011;886;50.082;8.222;2023-01-30T09:26:53;4.35;;;3.92;;
1777;SDS011;886;50.082;8.222;2023-01-30T09:29:25;5.05;;;4.50;;
1777;SDS011;886;50.082;8.222;2023-01-30T09:31:53;5.40;;;3.85;;
1777;SDS011;886;50.082;8.222;2023-01-30T09:34:21;3.60;;;3.30;;
1777;SDS011;886;50.082;8.222;2023-01-30T09:36:52;3.58;;;3.30;;
1777;SDS011;886;50.082;8.222;2023-01-30T09:39:21;3.35;;;3.05;;
1777;SDS011;886;50.082;8.222;2023-01-30T09:41:51;4.82;;;3.70;;
1777;SDS011;886;50.082;8.222;2023-01-30T09:44:43;4.85;;;4.35;;
1777;SDS011;886;50.082;8.222;2023-01-30T09:47:32;7.10;;;3.50;;
1777;SDS011;886;50.082;8.222;2023-01-30T09:50:14;3.92;;;3.63;;
1777;SDS011;886;50.082;8.222;2023-01-30T09:52:57;3.75;;;3.15;;
1777;SDS011;886;50.082;8.222;2023-01-30T09:55:31;3.35;;;3.05;;
1777;SDS011;886;50.082;8.222;2023-01-30T09:58:02;3.60;;;3.25;;
1777;SDS011;886;50.082;8.222;2023-01-30T10:00:31;3.30;;;3.05;;
1777;SDS011;886;50.082;8.222;2023-01-30T10:03:03;3.63;;;3.33;;
1777;SDS011;886;50.082;8.222;2023-01-30T10:05:37;3.22;;;3.03;;
1777;SDS011;886;50.082;8.222;2023-01-30T10:08:15;3.13;;;2.83;;
1777;SDS011;886;50.082;8.222;2023-01-30T10:11:02;2.88;;;2.67;;
1777;SDS011;886;50.082;8.222;2023-01-30T10:13:45;3.78;;;3.47;;
1777;SDS011;886;50.082;8.222;2023-01-30T10:16:29;3.25;;;2.85;;
1777;SDS011;886;50.082;8.222;2023-01-30T10:22:13;3.25;;;2.88;;
1777;SDS011;886;50.082;8.222;2023-01-30T10:24:59;3.70;;;2.60;;
1777;SDS011;886;50.082;8.222;2023-01-30T10:27:40;3.15;;;2.85;;
1777;SDS011;886;50.082;8.222;2023-01-30T10:30:15;5.85;;;2.60;;
1777;SDS011;886;50.082;8.222;2023-01-30T10:32:45;3.15;;;2.90;;
1777;SDS011;886;50.082;8.222;2023-01-30T10:35:18;3.05;;;2.10;;
1777;SDS011;886;50.082;8.222;2023-01-30T10:37:54;3.50;;;2.55;;
1777;SDS011;886;50.082;8.222;2023-01-30T10:40:27;2.75;;;2.55;;
1777;SDS011;886;50.082;8.222;2023-01-30T10:43:05;2.60;;;2.40;;
1777;SDS011;886;50.082;8.222;2023-01-30T10:45:41;2.50;;;2.30;;
1777;SDS011;886;50.082;8.222;2023-01-30T10:48:21;2.35;;;2.20;;
1777;SDS011;886;50.082;8.222;2023-01-30T10:51:16;2.10;;;2.00;;
1777;SDS011;886;50.082;8.222;2023-01-30T10:53:54;5.30;;;2.70;;
1777;SDS011;886;50.082;8.222;2023-01-30T10:56:29;2.20;;;1.80;;
1777;SDS011;886;50.082;8.222;2023-01-30T10:59:09;2.80;;;2.60;;
1777;SDS011;886;50.082;8.222;2023-01-30T11:01:52;2.30;;;2.10;;
1777;SDS011;886;50.082;8.222;2023-01-30T11:04:28;3.15;;;2.35;;
1777;SDS011;886;50.082;8.222;2023-01-30T11:06:58;1.80;;;1.70;;
1777;SDS011;886;50.082;8.222;2023-01-30T11:09:36;2.22;;;1.75;;
1777;SDS011;886;50.082;8.222;2023-01-30T11:12:06;1.60;;;1.50;;
1777;SDS011;886;50.082;8.222;2023-01-30T11:14:50;8.85;;;7.35;;
1777;SDS011;886;50.082;8.222;2023-01-30T11:19:54;1.97;;;1.87;;
1777;SDS011;886;50.082;8.222;2023-01-30T11:22:43;1.90;;;1.70;;
1777;SDS011;886;50.082;8.222;2023-01-30T11:25:27;1.60;;;1.50;;
1777;SDS011;886;50.082;8.222;2023-01-30T11:27:59;2.25;;;2.05;;
1777;SDS011;886;50.082;8.222;2023-01-30T11:30:35;2.70;;;2.50;;
1777;SDS011;886;50.082;8.222;2023-01-30T11:33:09;5.30;;;1.70;;
1777;SDS011;886;50.082;8.222;2023-01-30T11:35:41;3.00;;;1.58;;
1777;SDS011;886;50.082;8.222;2023-01-30T11:38:22;1.88;;;1.77;;
1777;SDS011;886;50.082;8.222;2023-01-30T11:41:00;4.80;;;1.92;;
1777;SDS011;886;50.082;8.222;2023-01-30T11:43:31;26.88;;;5.13;;
1777;SDS011;886;50.082;8.222;2023-01-30T11:46:07;27.35;;;6.00;;
1777;SDS011;886;50.082;8.222;2023-01-30T11:48:42;44.73;;;8.03;;
1777;SDS011;886;50.082;8.222;2023-01-30T11:54:28;2.08;;;1.65;;
1777;SDS011;886;50.082;8.222;2023-01-30T11:57:02;2.53;;;2.10;;
1777;SDS011;886;50.082;8.222;2023-01-30T11:59:34;1.77;;;1.67;;
1777;SDS011;886;50.082;8.222;2023-01-30T12:02:17;1.67;;;1.58;;
1777;SDS011;886;50.082;8.222;2023-01-30T12:04:49;2.13;;;1.60;;
1777;SDS011;886;50.082;8.222;2023-01-30T12:07:21;1.60;;;1.50;;
1777;SDS011;886;50.082;8.222;2023-01-30T12:09:51;2.60;;;1.90;;
1777;SDS011;886;50.082;8.222;2023-01-30T12:12:27;1.97;;;1.77;;
1777;SDS011;886;50.082;8.222;2023-01-30T12:17:55;1.60;;;1.50;;
1777;SDS011;886;50.082;8.222;2023-01-30T12:20:29;2.03;;;1.50;;
1777;SDS011;886;50.082;8.222;2023-01-30T12:23:12;1.97;;;1.87;;
1777;SDS011;886;50.082;8.222;2023-01-30T12:25:49;2.25;;;2.03;;
1777;SDS011;886;50.082;8.222;2023-01-30T12:28:34;8.13;;;2.73;;
1777;SDS011;886;50.082;8.222;2023-01-30T12:31:13;45.40;;;6.90;;
1777;SDS011;886;50.082;8.222;2023-01-30T12:33:49;2.25;;;1.90;;
1777;SDS011;886;50.082;8.222;2023-01-30T12:36:24;2.60;;;1.45;;
1777;SDS011;886;50.082;8.222;2023-01-30T12:39:04;1.80;;;1.70;;
1777;SDS011;886;50.082;8.222;2023-01-30T12:41:55;32.65;;;19.27;;
1777;SDS011;886;50.082;8.222;2023-01-30T12:47:49;7.93;;;2.07;;
1777;SDS011;886;50.082;8.222;2023-01-30T12:50:48;4.72;;;2.00;;
1777;SDS011;886;50.082;8.222;2023-01-30T12:53:29;3.70;;;2.10;;
1777;SDS011;886;50.082;8.222;2023-01-30T12:56:16;2.60;;;2.20;;
1777;SDS011;886;50.082;8.222;2023-01-30T12:58:55;3.03;;;2.40;;
1777;SDS011;886;50.082;8.222;2023-01-30T13:01:33;4.30;;;2.13;;
1777;SDS011;886;50.082;8.222;2023-01-30T13:04:12;5.20;;;2.15;;
1777;SDS011;886;50.082;8.222;2023-01-30T13:07:00;4.60;;;2.30;;
1777;SDS011;886;50.082;8.222;2023-01-30T13:09:48;2.73;;;2.00;;
1777;SDS011;886;50.082;8.222;2023-01-30T13:12:34;4.07;;;2.03;;
1777;SDS011;886;50.082;8.222;2023-01-30T13:15:15;4.97;;;2.60;;
1777;SDS011;886;50.082;8.222;2023-01-30T13:17:57;19.10;;;10.20;;
1777;SDS011;886;50.082;8.222;2023-01-30T13:20:37;5.90;;;2.70;;
1777;SDS011;886;50.082;8.222;2023-01-30T13:23:17;1.93;;;1.83;;
1777;SDS011;886;50.082;8.222;2023-01-30T13:25:56;3.73;;;2.13;;
1777;SDS011;886;50.082;8.222;2023-01-30T13:28:30;3.77;;;1.73;;
1777;SDS011;886;50.082;8.222;2023-01-30T13:31:05;6.77;;;2.30;;
1777;SDS011;886;50.082;8.222;2023-01-30T13:33:37;3.47;;;2.33;;
1777;SDS011;886;50.082;8.222;2023-01-30T13:36:13;2.70;;;2.37;;
1777;SDS011;886;50.082;8.222;2023-01-30T13:38:47;4.67;;;2.37;;
1777;SDS011;886;50.082;8.222;2023-01-30T13:41:23;6.13;;;2.73;;
1777;SDS011;886;50.082;8.222;2023-01-30T13:43:55;10.75;;;2.70;;
1777;SDS011;886;50.082;8.222;2023-01-30T13:46:26;4.80;;;2.57;;
1777;SDS011;886;50.082;8.222;2023-01-30T13:49:02;3.13;;;2.60;;
1777;SDS011;886;50.082;8.222;2023-01-30T13:51:45;14.63;;;9.63;;
1777;SDS011;886;50.082;8.222;2023-01-30T13:54:19;16.00;;;5.10;;
1777;SDS011;886;50.082;8.222;2023-01-30T13:57:00;3.85;;;2.15;;
1777;SDS011;886;50.082;8.222;2023-01-30T13:59:46;3.23;;;2.40;;
1777;SDS011;886;50.082;8.222;2023-01-30T14:03:14;3.23;;;2.40;;
1777;SDS011;886;50.082;8.222;2023-01-30T14:06:08;5.47;;;2.78;;
1777;SDS011;886;50.082;8.222;2023-01-30T14:08:50;5.20;;;2.30;;
1777;SDS011;886;50.082;8.222;2023-01-30T14:11:31;5.20;;;2.10;;
1777;SDS011;886;50.082;8.222;2023-01-30T14:14:25;6.68;;;2.65;;
1777;SDS011;886;50.082;8.222;2023-01-30T14:17:06;3.42;;;2.50;;
1777;SDS011;886;50.082;8.222;2023-01-30T14:19:52;5.57;;;2.03;;
1777;SDS011;886;50.082;8.222;2023-01-30T14:22:33;12.35;;;2.45;;
1777;SDS011;886;50.082;8.222;2023-01-30T14:49:30;5.50;;;2.85;;
1777;SDS011;886;50.082;8.222;2023-01-30T14:52:00;5.35;;;2.63;;
1777;SDS011;886;50.082;8.222;2023-01-30T14:54:38;4.30;;;3.00;;
1777;SDS011;886;50.082;8.222;2023-01-30T14:57:19;10.82;;;3.90;;
1777;SDS011;886;50.082;8.222;2023-01-30T14:59:53;5.82;;;3.10;;
1777;SDS011;886;50.082;8.222;2023-01-30T15:02:46;5.28;;;2.58;;
1777;SDS011;886;50.082;8.222;2023-01-30T15:05:41;9.57;;;3.13;;
1777;SDS011;886;50.082;8.222;2023-01-30T15:08:12;5.00;;;2.10;;
1777;SDS011;886;50.082;8.222;2023-01-30T15:11:00;8.23;;;3.28;;
1777;SDS011;886;50.082;8.222;2023-01-30T15:13:39;6.68;;;3.28;;
1777;SDS011;886;50.082;8.222;2023-01-30T15:16:22;7.13;;;2.60;;
1777;SDS011;886;50.082;8.222;2023-01-30T15:23:10;6.35;;;2.83;;
1777;SDS011;886;50.082;8.222;2023-01-30T15:26:06;6.03;;;2.70;;
1777;SDS011;886;50.082;8.222;2023-01-30T15:28:49;10.25;;;2.63;;
1777;SDS011;886;50.082;8.222;2023-01-30T15:31:27;9.90;;;2.88;;
1777;SDS011;886;50.082;8.222;2023-01-30T15:33:54;13.27;;;2.75;;
1777;SDS011;886;50.082;8.222;2023-01-30T15:36:25;34.00;;;21.52;;
1777;SDS011;886;50.082;8.222;2023-01-30T15:38:59;18.33;;;9.38;;
1777;SDS011;886;50.082;8.222;2023-01-30T15:41:29;5.57;;;2.70;;
1777;SDS011;886;50.082;8.222;2023-01-30T15:44:09;9.88;;;3.97;;
1777;SDS011;886;50.082;8.222;2023-01-30T15:47:13;9.15;;;2.58;;
1777;SDS011;886;50.082;8.222;2023-01-30T15:50:08;8.20;;;2.83;;
1777;SDS011;886;50.082;8.222;2023-01-30T15:52:38;6.63;;;2.35;;
1777;SDS011;886;50.082;8.222;2023-01-30T15:55:15;5.33;;;2.40;;
1777;SDS011;886;50.082;8.222;2023-01-30T15:57:47;3.55;;;1.98;;
1777;SDS011;886;50.082;8.222;2023-01-30T16:00:20;7.13;;;2.47;;
1777;SDS011;886;50.082;8.222;2023-01-30T16:02:53;3.15;;;1.75;;
1777;SDS011;886;50.082;8.222;2023-01-30T16:05:21;9.77;;;2.53;;
1777;SDS011;886;50.082;8.222;2023-01-30T16:07:53;7.43;;;2.40;;
1777;SDS011;886;50.082;8.222;2023-01-30T16:10:22;35.33;;;20.00;;
1777;SDS011;886;50.082;8.222;2023-01-30T16:12:53;11.70;;;3.28;;
1777;SDS011;886;50.082;8.222;2023-01-30T16:15:24;7.68;;;2.60;;
1777;SDS011;886;50.082;8.222;2023-01-30T16:17:58;5.30;;;2.20;;
1777;SDS011;886;50.082;8.222;2023-01-30T16:20:31;8.07;;;2.80;;
1777;SDS011;886;50.082;8.222;2023-01-30T16:23:29;6.40;;;2.92;;
1777;SDS011;886;50.082;8.222;2023-01-30T16:26:00;4.05;;;2.35;;
1777;SDS011;886;50.082;8.222;2023-01-30T16:28:29;9.90;;;2.60;;
1777;SDS011;886;50.082;8.222;2023-01-30T16:30:58;7.60;;;2.50;;
1777;SDS011;886;50.082;8.222;2023-01-30T16:33:27;5.90;;;2.53;;
1777;SDS011;886;50.082;8.222;2023-01-30T16:36:01;9.43;;;2.42;;
1777;SDS011;886;50.082;8.222;2023-01-30T16:38:40;6.13;;;2.63;;
1777;SDS011;886;50.082;8.222;2023-01-30T16:44:06;8.48;;;2.45;;